sensor_id;sensor_type;location;lat;lon;timestamp;temperature;humidity
21149;DHT22;10732;51.472;6.466;2023-03-01T00:00:12;-1.00;99.90
21149;DHT22;10732;51.472;6.466;2023-03-01T00:02:38;-1.10;99.90
21149;DHT22;10732;51.472;6.466;2023-03-01T00:05:04;-1.30;99.90
21149;DHT22;10732;51.472;6.466;2023-03-01T00:07:30;-1.20;99.90
21149;DHT22;10732;51.472;6.466;2023-03-01T00:09:55;-1.30;99.90
21149;DHT22;10732;51.472;6.466;2023-03-01T00:12:21;-1.40;99.90
21149;DHT22;10732;51.472;6.466;2023-03-01T00:14:46;-1.50;99.90
21149;DHT22;10732;51.472;6.466;2023-03-01T00:17:12;-1.60;99.90
21149;DHT22;10732;51.472;6.466;2023-03-01T00:19:37;-1.70;99.90
21149;DHT22;10732;51.472;6.466;2023-03-01T00:22:03;-1.60;99.90
21149;DHT22;10732;51.472;6.466;2023-03-01T00:24:28;-1.60;99.90
21149;DHT22;10732;51.472;6.466;2023-03-01T00:26:55;-1.60;99.90
21149;DHT22;10732;51.472;6.466;2023-03-01T00:29:22;-1.60;99.90
21149;DHT22;10732;51.472;6.466;2023-03-01T00:31:48;-1.50;99.90
21149;DHT22;10732;51.472;6.466;2023-03-01T00:34:13;-1.60;99.90
21149;DHT22;10732;51.472;6.466;2023-03-01T00:36:39;-1.60;99.90
21149;DHT22;10732;51.472;6.466;2023-03-01T00:39:09;-1.60;99.90
21149;DHT22;10732;51.472;6.466;2023-03-01T00:41:35;-1.70;99.90
21149;DHT22;10732;51.472;6.466;2023-03-01T00:44:01;-1.70;99.90
21149;DHT22;10732;51.472;6.466;2023-03-01T00:46:27;-1.70;99.90
21149;DHT22;10732;51.472;6.466;2023-03-01T00:48:55;-1.80;99.90
21149;DHT22;10732;51.472;6.466;2023-03-01T00:51:24;-1.80;99.90
21149;DHT22;10732;51.472;6.466;2023-03-01T00:53:57;-1.90;99.90
21149;DHT22;10732;51.472;6.466;2023-03-01T00:56:24;-1.90;99.90
21149;DHT22;10732;51.472;6.466;2023-03-01T00:58:50;-1.90;99.90
21149;DHT22;10732;51.472;6.466;2023-03-01T01:01:18;-1.90;99.90
21149;DHT22;10732;51.472;6.466;2023-03-01T01:03:49;-2.00;99.90
21149;DHT22;10732;51.472;6.466;2023-03-01T01:06:20;-2.00;99.90
21149;DHT22;10732;51.472;6.466;2023-03-01T01:08:46;-2.10;99.90
21149;DHT22;10732;51.472;6.466;2023-03-01T01:11:12;-2.10;99.90
21149;DHT22;10732;51.472;6.466;2023-03-01T01:13:39;-2.20;99.90
21149;DHT22;10732;51.472;6.466;2023-03-01T01:16:05;-2.30;99.90
21149;DHT22;10732;51.472;6.466;2023-03-01T01:18:31;-2.30;99.90
21149;DHT22;10732;51.472;6.466;2023-03-01T01:20:57;-2.30;99.90
21149;DHT22;10732;51.472;6.466;2023-03-01T01:23:22;-2.20;99.90
21149;DHT22;10732;51.472;6.466;2023-03-01T01:25:48;-2.10;99.90
21149;DHT22;10732;51.472;6.466;2023-03-01T01:28:13;-2.20;99.90
21149;DHT22;10732;51.472;6.466;2023-03-01T01:30:39;-2.20;99.90
21149;DHT22;10732;51.472;6.466;2023-03-01T01:33:04;-2.10;99.90
21149;DHT22;10732;51.472;6.466;2023-03-01T01:35:30;-2.20;99.90
21149;DHT22;10732;51.472;6.466;2023-03-01T01:37:55;-2.20;99.90
21149;DHT22;10732;51.472;6.466;2023-03-01T01:40:21;-2.20;99.90
21149;DHT22;10732;51.472;6.466;2023-03-01T01:42:46;-2.20;99.90
21149;DHT22;10732;51.472;6.466;2023-03-01T01:45:33;-2.20;99.90
21149;DHT22;10732;51.472;6.466;2023-03-01T01:48:13;-2.20;99.90
21149;DHT22;10732;51.472;6.466;2023-03-01T01:50:41;-2.00;99.90
21149;DHT22;10732;51.472;6.466;2023-03-01T01:53:12;-2.00;99.90
21149;DHT22;10732;51.472;6.466;2023-03-01T01:55:43;-2.10;99.90
21149;DHT22;10732;51.472;6.466;2023-03-01T01:58:11;-2.10;99.90
21149;DHT22;10732;51.472;6.466;2023-03-01T02:00:39;-2.20;99.90
21149;DHT22;10732;51.472;6.466;2023-03-01T02:03:08;-2.20;99.90
21149;DHT22;10732;51.472;6.466;2023-03-01T02:05:40;-2.20;99.90
21149;DHT22;10732;51.472;6.466;2023-03-01T02:08:11;-2.20;99.90
21149;DHT22;10732;51.472;6.466;2023-03-01T02:10:37;-2.20;99.90
21149;DHT22;10732;51.472;6.466;2023-03-01T02:13:03;-2.20;99.90
21149;DHT22;10732;51.472;6.466;2023-03-01T02:15:33;-2.10;99.90
21149;DHT22;10732;51.472;6.466;2023-03-01T02:18:00;-2.10;99.90
21149;DHT22;10732;51.472;6.466;2023-03-01T02:20:44;-2.10;99.90
21149;DHT22;10732;51.472;6.466;2023-03-01T02:23:13;-2.10;99.90
21149;DHT22;10732;51.472;6.466;2023-03-01T02:30:43;-2.30;99.90
21149;DHT22;10732;51.472;6.466;2023-03-01T02:33:28;-2.40;99.90
21149;DHT22;10732;51.472;6.466;2023-03-01T02:35:59;-2.50;99.90
21149;DHT22;10732;51.472;6.466;2023-03-01T02:38:25;-2.60;99.90
21149;DHT22;10732;51.472;6.466;2023-03-01T02:40:52;-2.70;99.90
21149;DHT22;10732;51.472;6.466;2023-03-01T02:43:19;-2.70;99.90
21149;DHT22;10732;51.472;6.466;2023-03-01T02:45:51;-2.80;99.90
21149;DHT22;10732;51.472;6.466;2023-03-01T02:48:18;-2.90;99.90
21149;DHT22;10732;51.472;6.466;2023-03-01T02:50:57;-2.90;99.90
21149;DHT22;10732;51.472;6.466;2023-03-01T02:56:18;-3.00;99.90
21149;DHT22;10732;51.472;6.466;2023-03-01T02:58:44;-3.10;99.90
21149;DHT22;10732;51.472;6.466;2023-03-01T03:01:17;-3.00;99.90
21149;DHT22;10732;51.472;6.466;2023-03-01T03:03:43;-2.80;99.90
21149;DHT22;10732;51.472;6.466;2023-03-01T03:06:09;-2.80;99.90
21149;DHT22;10732;51.472;6.466;2023-03-01T03:08:34;-2.70;99.90
21149;DHT22;10732;51.472;6.466;2023-03-01T03:11:00;-2.60;99.90
21149;DHT22;10732;51.472;6.466;2023-03-01T03:13:26;-2.50;99.90
21149;DHT22;10732;51.472;6.466;2023-03-01T03:15:57;-2.50;99.90
21149;DHT22;10732;51.472;6.466;2023-03-01T03:18:24;-2.50;99.90
21149;DHT22;10732;51.472;6.466;2023-03-01T03:20:53;-2.50;99.90
21149;DHT22;10732;51.472;6.466;2023-03-01T03:23:20;-2.50;99.90
21149;DHT22;10732;51.472;6.466;2023-03-01T03:25:49;-2.40;99.90
21149;DHT22;10732;51.472;6.466;2023-03-01T03:28:14;-2.40;99.90
21149;DHT22;10732;51.472;6.466;2023-03-01T03:30:41;-2.40;99.90
21149;DHT22;10732;51.472;6.466;2023-03-01T03:33:08;-2.40;99.90
21149;DHT22;10732;51.472;6.466;2023-03-01T03:35:40;-2.50;99.90
21149;DHT22;10732;51.472;6.466;2023-03-01T03:38:08;-2.40;99.90
21149;DHT22;10732;51.472;6.466;2023-03-01T03:40:43;-2.40;99.90
21149;DHT22;10732;51.472;6.466;2023-03-01T03:43:11;-2.30;99.90
21149;DHT22;10732;51.472;6.466;2023-03-01T03:45:37;-2.20;99.90
21149;DHT22;10732;51.472;6.466;2023-03-01T03:48:05;-2.20;99.90
21149;DHT22;10732;51.472;6.466;2023-03-01T03:50:30;-2.20;99.90
21149;DHT22;10732;51.472;6.466;2023-03-01T03:53:03;-2.30;99.90
21149;DHT22;10732;51.472;6.466;2023-03-01T03:55:29;-2.40;99.90
21149;DHT22;10732;51.472;6.466;2023-03-01T03:57:57;-2.50;99.90
21149;DHT22;10732;51.472;6.466;2023-03-01T04:00:23;-2.50;99.90
21149;DHT22;10732;51.472;6.466;2023-03-01T04:02:50;-2.50;99.90
21149;DHT22;10732;51.472;6.466;2023-03-01T04:05:17;-2.60;99.90
21149;DHT22;10732;51.472;6.466;2023-03-01T04:07:44;-2.60;99.90
21149;DHT22;10732;51.472;6.466;2023-03-01T04:10:13;-2.70;99.90
21149;DHT22;10732;51.472;6.466;2023-03-01T04:12:39;-2.80;99.90
21149;DHT22;10732;51.472;6.466;2023-03-01T04:15:06;-2.90;99.90
21149;DHT22;10732;51.472;6.466;2023-03-01T04:17:46;-2.90;99.90
21149;DHT22;10732;51.472;6.466;2023-03-01T04:20:16;-2.90;99.90
21149;DHT22;10732;51.472;6.466;2023-03-01T04:22:43;-2.80;99.90
21149;DHT22;10732;51.472;6.466;2023-03-01T04:25:08;-2.80;99.90
21149;DHT22;10732;51.472;6.466;2023-03-01T04:27:35;-2.80;99.90
21149;DHT22;10732;51.472;6.466;2023-03-01T04:30:02;-2.70;99.90
21149;DHT22;10732;51.472;6.466;2023-03-01T04:32:28;-2.80;99.90
21149;DHT22;10732;51.472;6.466;2023-03-01T04:34:54;-2.80;99.90
21149;DHT22;10732;51.472;6.466;2023-03-01T04:37:19;-2.90;99.90
21149;DHT22;10732;51.472;6.466;2023-03-01T04:39:45;-2.80;99.90
21149;DHT22;10732;51.472;6.466;2023-03-01T04:42:11;-2.90;99.90
21149;DHT22;10732;51.472;6.466;2023-03-01T04:44:37;-2.90;99.90
21149;DHT22;10732;51.472;6.466;2023-03-01T04:47:02;-2.90;99.90
21149;DHT22;10732;51.472;6.466;2023-03-01T04:49:28;-2.90;99.90
21149;DHT22;10732;51.472;6.466;2023-03-01T04:51:53;-2.90;99.90
21149;DHT22;10732;51.472;6.466;2023-03-01T04:54:19;-2.90;99.90
21149;DHT22;10732;51.472;6.466;2023-03-01T04:56:44;-2.80;99.90
21149;DHT22;10732;51.472;6.466;2023-03-01T04:59:10;-2.90;99.90
21149;DHT22;10732;51.472;6.466;2023-03-01T05:01:38;-2.90;99.90
21149;DHT22;10732;51.472;6.466;2023-03-01T05:04:04;-2.90;99.90
21149;DHT22;10732;51.472;6.466;2023-03-01T05:06:31;-2.90;99.90
21149;DHT22;10732;51.472;6.466;2023-03-01T05:08:58;-2.90;99.90
21149;DHT22;10732;51.472;6.466;2023-03-01T05:11:23;-2.90;99.90
21149;DHT22;10732;51.472;6.466;2023-03-01T05:13:49;-2.80;99.90
21149;DHT22;10732;51.472;6.466;2023-03-01T05:16:20;-2.80;99.90
21149;DHT22;10732;51.472;6.466;2023-03-01T05:18:45;-2.80;99.90
21149;DHT22;10732;51.472;6.466;2023-03-01T05:21:13;-2.80;99.90
21149;DHT22;10732;51.472;6.466;2023-03-01T05:23:41;-2.90;99.90
21149;DHT22;10732;51.472;6.466;2023-03-01T05:26:07;-2.90;99.90
21149;DHT22;10732;51.472;6.466;2023-03-01T05:28:33;-2.90;99.90
21149;DHT22;10732;51.472;6.466;2023-03-01T05:30:58;-3.00;99.90
21149;DHT22;10732;51.472;6.466;2023-03-01T05:33:25;-3.00;99.90
21149;DHT22;10732;51.472;6.466;2023-03-01T05:35:51;-3.10;99.90
21149;DHT22;10732;51.472;6.466;2023-03-01T05:38:18;-3.20;99.90
21149;DHT22;10732;51.472;6.466;2023-03-01T05:40:46;-3.30;99.90
21149;DHT22;10732;51.472;6.466;2023-03-01T05:43:13;-3.40;99.90
21149;DHT22;10732;51.472;6.466;2023-03-01T05:45:40;-3.40;99.90
21149;DHT22;10732;51.472;6.466;2023-03-01T05:48:07;-3.40;99.90
21149;DHT22;10732;51.472;6.466;2023-03-01T05:50:35;-3.30;99.90
21149;DHT22;10732;51.472;6.466;2023-03-01T05:53:10;-3.20;99.90
21149;DHT22;10732;51.472;6.466;2023-03-01T05:55:36;-3.10;99.90
21149;DHT22;10732;51.472;6.466;2023-03-01T05:58:04;-3.10;99.90
21149;DHT22;10732;51.472;6.466;2023-03-01T06:00:30;-3.10;99.90
21149;DHT22;10732;51.472;6.466;2023-03-01T06:02:57;-3.10;99.90
21149;DHT22;10732;51.472;6.466;2023-03-01T06:05:23;-3.10;99.90
21149;DHT22;10732;51.472;6.466;2023-03-01T06:07:49;-3.20;99.90
21149;DHT22;10732;51.472;6.466;2023-03-01T06:10:16;-3.20;99.90
21149;DHT22;10732;51.472;6.466;2023-03-01T06:12:43;-3.20;99.90
21149;DHT22;10732;51.472;6.466;2023-03-01T06:15:11;-3.30;99.90
21149;DHT22;10732;51.472;6.466;2023-03-01T06:17:38;-3.30;99.90
21149;DHT22;10732;51.472;6.466;2023-03-01T06:20:11;-3.50;99.90
21149;DHT22;10732;51.472;6.466;2023-03-01T06:22:37;-3.60;99.90
21149;DHT22;10732;51.472;6.466;2023-03-01T06:25:03;-3.70;99.90
21149;DHT22;10732;51.472;6.466;2023-03-01T06:27:28;-3.80;99.90
21149;DHT22;10732;51.472;6.466;2023-03-01T06:29:54;-3.80;99.90
21149;DHT22;10732;51.472;6.466;2023-03-01T06:32:20;-3.80;99.90
21149;DHT22;10732;51.472;6.466;2023-03-01T06:34:45;-3.90;99.90
21149;DHT22;10732;51.472;6.466;2023-03-01T06:37:11;-3.90;99.90
21149;DHT22;10732;51.472;6.466;2023-03-01T06:39:37;-3.90;99.90
21149;DHT22;10732;51.472;6.466;2023-03-01T06:42:02;-3.80;99.90
21149;DHT22;10732;51.472;6.466;2023-03-01T06:44:28;-3.80;99.90
21149;DHT22;10732;51.472;6.466;2023-03-01T06:46:54;-3.80;99.90
21149;DHT22;10732;51.472;6.466;2023-03-01T06:49:20;-3.70;99.90
21149;DHT22;10732;51.472;6.466;2023-03-01T06:51:46;-3.60;99.90
21149;DHT22;10732;51.472;6.466;2023-03-01T06:54:12;-3.60;99.90
21149;DHT22;10732;51.472;6.466;2023-03-01T06:56:38;-3.50;99.90
21149;DHT22;10732;51.472;6.466;2023-03-01T06:59:04;-3.40;99.90
21149;DHT22;10732;51.472;6.466;2023-03-01T07:01:30;-3.30;99.90
21149;DHT22;10732;51.472;6.466;2023-03-01T07:03:56;-3.20;99.90
21149;DHT22;10732;51.472;6.466;2023-03-01T07:06:22;-3.00;99.90
21149;DHT22;10732;51.472;6.466;2023-03-01T07:08:48;-2.90;99.90
21149;DHT22;10732;51.472;6.466;2023-03-01T07:11:14;-2.80;99.90
21149;DHT22;10732;51.472;6.466;2023-03-01T07:13:39;-2.70;99.90
21149;DHT22;10732;51.472;6.466;2023-03-01T07:16:05;-2.60;99.90
21149;DHT22;10732;51.472;6.466;2023-03-01T07:18:31;-2.50;99.90
21149;DHT22;10732;51.472;6.466;2023-03-01T07:20:56;-2.30;99.90
21149;DHT22;10732;51.472;6.466;2023-03-01T07:23:22;-2.20;99.90
21149;DHT22;10732;51.472;6.466;2023-03-01T07:25:52;-2.10;99.90
21149;DHT22;10732;51.472;6.466;2023-03-01T07:28:18;-2.00;99.90
21149;DHT22;10732;51.472;6.466;2023-03-01T07:30:44;-1.90;99.90
21149;DHT22;10732;51.472;6.466;2023-03-01T07:33:10;-1.70;99.90
21149;DHT22;10732;51.472;6.466;2023-03-01T07:35:35;-1.60;99.90
21149;DHT22;10732;51.472;6.466;2023-03-01T07:38:01;-1.50;99.90
21149;DHT22;10732;51.472;6.466;2023-03-01T07:40:26;-1.40;99.90
21149;DHT22;10732;51.472;6.466;2023-03-01T07:43:01;-1.20;99.90
21149;DHT22;10732;51.472;6.466;2023-03-01T07:45:27;-1.10;99.90
21149;DHT22;10732;51.472;6.466;2023-03-01T07:47:54;-1.00;99.90
21149;DHT22;10732;51.472;6.466;2023-03-01T07:50:20;-1.00;99.90
21149;DHT22;10732;51.472;6.466;2023-03-01T07:52:47;-0.90;99.90
21149;DHT22;10732;51.472;6.466;2023-03-01T07:55:12;-0.80;99.90
21149;DHT22;10732;51.472;6.466;2023-03-01T07:57:38;-0.70;99.90
21149;DHT22;10732;51.472;6.466;2023-03-01T08:00:05;-0.60;99.90
21149;DHT22;10732;51.472;6.466;2023-03-01T08:02:31;-0.50;99.90
21149;DHT22;10732;51.472;6.466;2023-03-01T08:04:56;-0.40;99.90
21149;DHT22;10732;51.472;6.466;2023-03-01T08:07:22;-0.30;99.90
21149;DHT22;10732;51.472;6.466;2023-03-01T08:09:47;-0.20;99.90
21149;DHT22;10732;51.472;6.466;2023-03-01T08:12:13;0.00;99.90
21149;DHT22;10732;51.472;6.466;2023-03-01T08:14:39;0.60;99.90
21149;DHT22;10732;51.472;6.466;2023-03-01T08:17:04;1.70;99.90
21149;DHT22;10732;51.472;6.466;2023-03-01T08:19:30;3.90;99.90
21149;DHT22;10732;51.472;6.466;2023-03-01T08:21:56;3.60;99.90
21149;DHT22;10732;51.472;6.466;2023-03-01T08:24:23;4.50;99.90
21149;DHT22;10732;51.472;6.466;2023-03-01T08:26:49;4.60;99.90
21149;DHT22;10732;51.472;6.466;2023-03-01T08:29:15;5.10;99.90
21149;DHT22;10732;51.472;6.466;2023-03-01T08:31:40;4.40;99.90
21149;DHT22;10732;51.472;6.466;2023-03-01T08:34:08;6.30;99.90
21149;DHT22;10732;51.472;6.466;2023-03-01T08:36:37;6.90;99.90
21149;DHT22;10732;51.472;6.466;2023-03-01T08:39:04;6.80;99.90
21149;DHT22;10732;51.472;6.466;2023-03-01T08:41:30;7.10;99.90
21149;DHT22;10732;51.472;6.466;2023-03-01T08:43:55;7.90;99.90
21149;DHT22;10732;51.472;6.466;2023-03-01T08:46:35;7.80;99.90
21149;DHT22;10732;51.472;6.466;2023-03-01T08:49:07;7.00;99.90
21149;DHT22;10732;51.472;6.466;2023-03-01T08:51:34;7.10;99.90
21149;DHT22;10732;51.472;6.466;2023-03-01T08:54:07;7.70;99.90
21149;DHT22;10732;51.472;6.466;2023-03-01T08:56:35;7.30;99.90
21149;DHT22;10732;51.472;6.466;2023-03-01T08:59:00;8.70;99.90
21149;DHT22;10732;51.472;6.466;2023-03-01T09:01:26;9.20;99.90
21149;DHT22;10732;51.472;6.466;2023-03-01T09:03:51;7.60;99.90
21149;DHT22;10732;51.472;6.466;2023-03-01T09:06:17;7.40;99.90
21149;DHT22;10732;51.472;6.466;2023-03-01T09:08:45;8.00;99.90
21149;DHT22;10732;51.472;6.466;2023-03-01T09:11:13;8.10;99.90
21149;DHT22;10732;51.472;6.466;2023-03-01T09:13:39;8.20;99.90
21149;DHT22;10732;51.472;6.466;2023-03-01T09:16:06;7.70;99.90
21149;DHT22;10732;51.472;6.466;2023-03-01T09:18:33;7.90;99.90
21149;DHT22;10732;51.472;6.466;2023-03-01T09:21:07;7.80;99.90
21149;DHT22;10732;51.472;6.466;2023-03-01T09:23:34;8.50;99.90
21149;DHT22;10732;51.472;6.466;2023-03-01T09:26:00;9.50;99.90
21149;DHT22;10732;51.472;6.466;2023-03-01T09:28:25;8.50;99.90
21149;DHT22;10732;51.472;6.466;2023-03-01T09:30:51;10.50;99.90
21149;DHT22;10732;51.472;6.466;2023-03-01T09:33:16;10.10;99.90
21149;DHT22;10732;51.472;6.466;2023-03-01T09:35:42;9.00;99.90
21149;DHT22;10732;51.472;6.466;2023-03-01T09:38:12;8.50;99.90
21149;DHT22;10732;51.472;6.466;2023-03-01T09:40:43;9.40;99.90
21149;DHT22;10732;51.472;6.466;2023-03-01T09:43:31;11.20;99.90
21149;DHT22;10732;51.472;6.466;2023-03-01T09:46:05;10.50;99.90
21149;DHT22;10732;51.472;6.466;2023-03-01T09:48:40;11.20;99.90
21149;DHT22;10732;51.472;6.466;2023-03-01T09:51:12;9.80;99.90
21149;DHT22;10732;51.472;6.466;2023-03-01T09:53:40;10.00;99.90
21149;DHT22;10732;51.472;6.466;2023-03-01T09:56:25;10.50;99.90
21149;DHT22;10732;51.472;6.466;2023-03-01T09:58:57;10.60;99.90
21149;DHT22;10732;51.472;6.466;2023-03-01T10:06:51;10.60;99.90
21149;DHT22;10732;51.472;6.466;2023-03-01T10:09:20;9.80;99.90
21149;DHT22;10732;51.472;6.466;2023-03-01T10:11:52;9.20;99.90
21149;DHT22;10732;51.472;6.466;2023-03-01T10:17:12;9.90;99.90
21149;DHT22;10732;51.472;6.466;2023-03-01T10:19:44;10.50;99.90
21149;DHT22;10732;51.472;6.466;2023-03-01T10:22:19;10.60;99.90
21149;DHT22;10732;51.472;6.466;2023-03-01T10:24:50;10.00;99.90
21149;DHT22;10732;51.472;6.466;2023-03-01T10:27:25;9.70;99.90
21149;DHT22;10732;51.472;6.466;2023-03-01T10:32:23;10.00;99.90
21149;DHT22;10732;51.472;6.466;2023-03-01T10:34:49;10.30;99.90
21149;DHT22;10732;51.472;6.466;2023-03-01T10:37:18;11.40;99.90
21149;DHT22;10732;51.472;6.466;2023-03-01T10:40:02;10.60;99.90
21149;DHT22;10732;51.472;6.466;2023-03-01T10:43:10;10.50;99.90
21149;DHT22;10732;51.472;6.466;2023-03-01T10:48:16;10.10;99.90
21149;DHT22;10732;51.472;6.466;2023-03-01T10:50:46;10.30;99.90
21149;DHT22;10732;51.472;6.466;2023-03-01T10:56:01;9.90;99.90
21149;DHT22;10732;51.472;6.466;2023-03-01T10:58:28;9.80;99.90
21149;DHT22;10732;51.472;6.466;2023-03-01T11:01:00;9.50;99.90
21149;DHT22;10732;51.472;6.466;2023-03-01T11:03:35;10.80;99.90
21149;DHT22;10732;51.472;6.466;2023-03-01T11:11:18;9.20;99.90
21149;DHT22;10732;51.472;6.466;2023-03-01T11:14:13;9.60;99.90
21149;DHT22;10732;51.472;6.466;2023-03-01T11:16:42;9.80;99.90
21149;DHT22;10732;51.472;6.466;2023-03-01T11:21:56;10.00;99.90
21149;DHT22;10732;51.472;6.466;2023-03-01T11:24:44;10.30;99.90
21149;DHT22;10732;51.472;6.466;2023-03-01T11:27:38;10.80;99.90
21149;DHT22;10732;51.472;6.466;2023-03-01T11:30:27;10.20;99.90
21149;DHT22;10732;51.472;6.466;2023-03-01T11:33:18;9.90;99.90
21149;DHT22;10732;51.472;6.466;2023-03-01T11:35:55;9.50;99.90
21149;DHT22;10732;51.472;6.466;2023-03-01T11:38:25;10.20;99.90
21149;DHT22;10732;51.472;6.466;2023-03-01T11:40:57;10.30;99.90
21149;DHT22;10732;51.472;6.466;2023-03-01T11:44:23;10.60;99.90
21149;DHT22;10732;51.472;6.466;2023-03-01T11:46:36;10.50;99.90
21149;DHT22;10732;51.472;6.466;2023-03-01T11:49:38;9.90;99.90
21149;DHT22;10732;51.472;6.466;2023-03-01T11:52:29;9.30;99.90
21149;DHT22;10732;51.472;6.466;2023-03-01T12:08:47;9.40;99.90
21149;DHT22;10732;51.472;6.466;2023-03-01T12:11:37;9.20;99.90
21149;DHT22;10732;51.472;6.466;2023-03-01T12:14:49;8.30;99.90
21149;DHT22;10732;51.472;6.466;2023-03-01T12:20:14;7.60;99.90
21149;DHT22;10732;51.472;6.466;2023-03-01T12:23:07;7.40;99.90
21149;DHT22;10732;51.472;6.466;2023-03-01T12:25:59;7.20;99.90
21149;DHT22;10732;51.472;6.466;2023-03-01T12:34:35;7.10;99.90
21149;DHT22;10732;51.472;6.466;2023-03-01T12:45:50;6.80;99.90
21149;DHT22;10732;51.472;6.466;2023-03-01T12:48:43;6.90;99.90
21149;DHT22;10732;51.472;6.466;2023-03-01T12:51:14;7.00;99.90
21149;DHT22;10732;51.472;6.466;2023-03-01T12:53:47;6.80;99.90
21149;DHT22;10732;51.472;6.466;2023-03-01T12:56:17;6.80;99.90
21149;DHT22;10732;51.472;6.466;2023-03-01T12:59:13;6.90;99.90
21149;DHT22;10732;51.472;6.466;2023-03-01T13:07:47;7.30;99.90
21149;DHT22;10732;51.472;6.466;2023-03-01T13:10:34;7.20;99.90
21149;DHT22;10732;51.472;6.466;2023-03-01T13:13:13;7.30;99.90
21149;DHT22;10732;51.472;6.466;2023-03-01T13:15:39;7.20;99.90
21149;DHT22;10732;51.472;6.466;2023-03-01T13:33:48;6.90;99.90
21149;DHT22;10732;51.472;6.466;2023-03-01T13:36:46;6.90;99.90
21149;DHT22;10732;51.472;6.466;2023-03-01T13:39:30;7.20;99.90
21149;DHT22;10732;51.472;6.466;2023-03-01T13:41:58;7.10;99.90
21149;DHT22;10732;51.472;6.466;2023-03-01T13:44:36;7.30;99.90
21149;DHT22;10732;51.472;6.466;2023-03-01T13:47:16;7.40;99.90
21149;DHT22;10732;51.472;6.466;2023-03-01T13:49:53;7.30;99.90
21149;DHT22;10732;51.472;6.466;2023-03-01T13:57:44;6.90;99.90
21149;DHT22;10732;51.472;6.466;2023-03-01T14:01:03;7.10;99.90
21149;DHT22;10732;51.472;6.466;2023-03-01T14:03:30;7.20;99.90
21149;DHT22;10732;51.472;6.466;2023-03-01T14:06:03;7.30;99.90
21149;DHT22;10732;51.472;6.466;2023-03-01T14:08:32;7.20;99.90
21149;DHT22;10732;51.472;6.466;2023-03-01T14:14:01;7.20;99.90
21149;DHT22;10732;51.472;6.466;2023-03-01T14:19:23;7.00;99.90
21149;DHT22;10732;51.472;6.466;2023-03-01T14:24:29;7.00;99.90
21149;DHT22;10732;51.472;6.466;2023-03-01T14:26:57;7.00;99.90
21149;DHT22;10732;51.472;6.466;2023-03-01T14:29:37;7.10;99.90
21149;DHT22;10732;51.472;6.466;2023-03-01T14:32:25;7.10;99.90
21149;DHT22;10732;51.472;6.466;2023-03-01T14:34:51;7.00;99.90
21149;DHT22;10732;51.472;6.466;2023-03-01T14:37:34;6.90;99.90
21149;DHT22;10732;51.472;6.466;2023-03-01T14:40:02;6.80;99.90
21149;DHT22;10732;51.472;6.466;2023-03-01T14:42:31;6.80;99.90
21149;DHT22;10732;51.472;6.466;2023-03-01T14:45:00;6.80;99.90
21149;DHT22;10732;51.472;6.466;2023-03-01T14:47:33;6.80;99.90
21149;DHT22;10732;51.472;6.466;2023-03-01T14:50:26;6.90;99.90
21149;DHT22;10732;51.472;6.466;2023-03-01T14:52:59;7.00;99.90
21149;DHT22;10732;51.472;6.466;2023-03-01T14:55:30;7.00;99.90
21149;DHT22;10732;51.472;6.466;2023-03-01T14:57:57;7.00;99.90
21149;DHT22;10732;51.472;6.466;2023-03-01T15:00:26;6.90;99.90
21149;DHT22;10732;51.472;6.466;2023-03-01T15:02:55;6.90;99.90
21149;DHT22;10732;51.472;6.466;2023-03-01T15:05:40;6.80;99.90
21149;DHT22;10732;51.472;6.466;2023-03-01T15:08:06;6.80;99.90
21149;DHT22;10732;51.472;6.466;2023-03-01T15:10:35;6.80;99.90
21149;DHT22;10732;51.472;6.466;2023-03-01T15:13:21;6.80;99.90
21149;DHT22;10732;51.472;6.466;2023-03-01T15:15:48;6.80;99.90
21149;DHT22;10732;51.472;6.466;2023-03-01T15:18:21;6.90;99.90
21149;DHT22;10732;51.472;6.466;2023-03-01T15:20:48;6.90;99.90
21149;DHT22;10732;51.472;6.466;2023-03-01T15:23:29;6.90;99.90
21149;DHT22;10732;51.472;6.466;2023-03-01T15:25:56;6.90;99.90
21149;DHT22;10732;51.472;6.466;2023-03-01T15:28:26;6.80;99.90
21149;DHT22;10732;51.472;6.466;2023-03-01T15:31:01;6.80;99.90
21149;DHT22;10732;51.472;6.466;2023-03-01T15:33:30;6.80;99.90
21149;DHT22;10732;51.472;6.466;2023-03-01T15:35:58;6.70;99.90
21149;DHT22;10732;51.472;6.466;2023-03-01T15:38:36;6.70;99.90
21149;DHT22;10732;51.472;6.466;2023-03-01T15:41:32;6.70;99.90
21149;DHT22;10732;51.472;6.466;2023-03-01T15:44:00;6.60;99.90
21149;DHT22;10732;51.472;6.466;2023-03-01T15:46:34;6.60;99.90
21149;DHT22;10732;51.472;6.466;2023-03-01T15:49:03;6.50;99.90
21149;DHT22;10732;51.472;6.466;2023-03-01T15:51:35;6.50;99.90
21149;DHT22;10732;51.472;6.466;2023-03-01T15:54:09;6.50;99.90
21149;DHT22;10732;51.472;6.466;2023-03-01T15:56:36;6.50;99.90
21149;DHT22;10732;51.472;6.466;2023-03-01T15:59:03;6.50;99.90
21149;DHT22;10732;51.472;6.466;2023-03-01T16:01:29;6.50;99.90
21149;DHT22;10732;51.472;6.466;2023-03-01T16:03:54;6.50;99.90
21149;DHT22;10732;51.472;6.466;2023-03-01T16:06:21;6.40;99.90
21149;DHT22;10732;51.472;6.466;2023-03-01T16:08:47;6.50;99.90
21149;DHT22;10732;51.472;6.466;2023-03-01T16:11:16;6.40;99.90
21149;DHT22;10732;51.472;6.466;2023-03-01T16:13:42;6.30;99.90
21149;DHT22;10732;51.472;6.466;2023-03-01T16:16:10;6.30;99.90
21149;DHT22;10732;51.472;6.466;2023-03-01T16:18:38;6.20;99.90
21149;DHT22;10732;51.472;6.466;2023-03-01T16:21:04;6.20;99.90
21149;DHT22;10732;51.472;6.466;2023-03-01T16:23:30;6.10;99.90
21149;DHT22;10732;51.472;6.466;2023-03-01T16:25:59;6.10;99.90
21149;DHT22;10732;51.472;6.466;2023-03-01T16:28:25;6.00;99.90
21149;DHT22;10732;51.472;6.466;2023-03-01T16:30:51;6.00;99.90
21149;DHT22;10732;51.472;6.466;2023-03-01T16:33:17;6.00;99.90
21149;DHT22;10732;51.472;6.466;2023-03-01T16:35:43;5.90;99.90
21149;DHT22;10732;51.472;6.466;2023-03-01T16:38:09;5.80;99.90
21149;DHT22;10732;51.472;6.466;2023-03-01T16:40:35;5.70;99.90
21149;DHT22;10732;51.472;6.466;2023-03-01T16:43:00;5.60;99.90
21149;DHT22;10732;51.472;6.466;2023-03-01T16:45:28;5.60;99.90
21149;DHT22;10732;51.472;6.466;2023-03-01T16:47:57;5.60;99.90
21149;DHT22;10732;51.472;6.466;2023-03-01T16:50:23;5.60;99.90
21149;DHT22;10732;51.472;6.466;2023-03-01T16:52:48;5.60;99.90
21149;DHT22;10732;51.472;6.466;2023-03-01T16:55:14;5.50;99.90
21149;DHT22;10732;51.472;6.466;2023-03-01T16:57:40;5.50;99.90
21149;DHT22;10732;51.472;6.466;2023-03-01T17:00:07;5.40;99.90
21149;DHT22;10732;51.472;6.466;2023-03-01T17:02:34;5.40;99.90
21149;DHT22;10732;51.472;6.466;2023-03-01T17:05:01;5.30;99.90
21149;DHT22;10732;51.472;6.466;2023-03-01T17:07:28;5.20;99.90
21149;DHT22;10732;51.472;6.466;2023-03-01T17:09:54;5.20;99.90
21149;DHT22;10732;51.472;6.466;2023-03-01T17:12:19;5.10;99.90
21149;DHT22;10732;51.472;6.466;2023-03-01T17:14:45;5.10;99.90
21149;DHT22;10732;51.472;6.466;2023-03-01T17:17:11;5.00;99.90
21149;DHT22;10732;51.472;6.466;2023-03-01T17:19:37;4.90;99.90
21149;DHT22;10732;51.472;6.466;2023-03-01T17:22:06;4.80;99.90
21149;DHT22;10732;51.472;6.466;2023-03-01T17:24:36;4.80;99.90
21149;DHT22;10732;51.472;6.466;2023-03-01T17:27:02;4.70;99.90
21149;DHT22;10732;51.472;6.466;2023-03-01T17:29:28;4.70;99.90
21149;DHT22;10732;51.472;6.466;2023-03-01T17:31:53;4.60;99.90